createdAt,value
2018-11-22T00:01:08.741Z,100849.45
2018-11-22T00:03:37.974Z,100848.36
2018-11-22T00:06:06.882Z,100857.36
2018-11-22T00:08:36.036Z,100859.87
2018-11-22T00:11:04.792Z,100856.78
2018-11-22T00:13:33.674Z,100855.83
2018-11-22T00:16:08.457Z,100855.33
2018-11-22T00:18:37.361Z,100858.43
2018-11-22T00:21:06.732Z,100860.21
2018-11-22T00:23:36.868Z,100864.44
2018-11-22T00:26:05.791Z,100866.63
2018-11-22T00:28:34.705Z,100867.19
2018-11-22T00:31:06.583Z,100870.14
2018-11-22T00:33:35.489Z,100874.77
2018-11-22T00:36:07.017Z,100868.02
2018-11-22T00:38:36.140Z,100867.59
2018-11-22T00:41:12.874Z,100869.75
2018-11-22T00:43:41.806Z,100867.78
2018-11-22T00:46:10.751Z,100870.29
2018-11-22T00:48:39.345Z,100875.92
2018-11-22T00:51:07.986Z,100877.03
2018-11-22T00:53:38.670Z,100874.33
2018-11-22T00:56:08.075Z,100871.93
2018-11-22T00:58:37.321Z,100874.63
2018-11-22T01:01:07.862Z,100875.97
2018-11-22T01:03:36.716Z,100880.21
2018-11-22T01:06:08.441Z,100888.84
2018-11-22T01:08:37.329Z,100884.98
2018-11-22T01:11:06.065Z,100888.89
2018-11-22T01:13:41.092Z,100890.05
2018-11-22T01:16:10.247Z,100890.38
2018-11-22T01:18:42.629Z,100884.17
2018-11-22T01:21:11.715Z,100879.88
2018-11-22T01:23:40.328Z,100888.70
2018-11-22T01:26:09.253Z,100889.08
2018-11-22T01:28:38.367Z,100885.91
2018-11-22T01:31:07.589Z,100890.38
2018-11-22T01:33:36.510Z,100895.84
2018-11-22T01:36:11.649Z,100893.76
2018-11-22T01:38:40.571Z,100890.72
2018-11-22T01:41:09.468Z,100891.78
2018-11-22T01:43:45.043Z,100893.95
2018-11-22T01:46:14.247Z,100896.50
2018-11-22T01:48:43.272Z,100892.70
2018-11-22T01:51:21.677Z,100895.30
2018-11-22T01:53:53.334Z,100893.80
2018-11-22T01:56:24.885Z,100893.13
2018-11-22T01:58:53.686Z,100893.13
2018-11-22T02:01:22.547Z,100896.78
2018-11-22T02:03:51.452Z,100898.66
2018-11-22T02:06:20.522Z,100895.63
2018-11-22T02:08:50.124Z,100899.29
2018-11-22T02:11:20.520Z,100895.30
2018-11-22T02:13:49.487Z,100897.80
2018-11-22T02:16:24.134Z,100894.91
2018-11-22T02:18:53.022Z,100895.16
2018-11-22T02:21:26.402Z,100895.78
2018-11-22T02:23:55.312Z,100897.22
2018-11-22T02:26:23.979Z,100894.08
2018-11-22T02:28:53.393Z,100892.59
2018-11-22T02:31:22.032Z,100893.08
2018-11-22T02:33:53.751Z,100885.57
2018-11-22T02:36:28.664Z,100891.16
2018-11-22T02:38:57.561Z,100889.45
2018-11-22T02:41:29.766Z,100890.86
2018-11-22T02:43:58.843Z,100896.11
2018-11-22T02:46:27.477Z,100890.91
2018-11-22T02:48:56.463Z,100894.52
2018-11-22T02:51:43.224Z,100893.98
2018-11-22T02:54:14.156Z,100888.73
2018-11-22T02:56:43.215Z,100894.37
2018-11-22T02:59:11.849Z,100892.64
2018-11-22T03:01:40.862Z,100895.59
2018-11-22T03:04:09.453Z,100894.77
2018-11-22T03:06:40.868Z,100893.17
2018-11-22T03:09:11.199Z,100894.04
2018-11-22T03:11:40.325Z,100889.99
2018-11-22T03:14:09.141Z,100892.64
2018-11-22T03:16:37.826Z,100891.73
2018-11-22T03:19:06.546Z,100892.08
2018-11-22T03:21:39.673Z,100889.08
2018-11-22T03:24:06.659Z,100895.20
2018-11-22T03:26:35.673Z,100892.12
2018-11-22T03:29:05.388Z,100895.54
2018-11-22T03:31:41.740Z,100895.73
2018-11-22T03:34:10.647Z,100892.22
2018-11-22T03:36:41.279Z,100889.27
2018-11-22T03:39:10.567Z,100886.71
2018-11-22T03:41:39.149Z,100891.01
2018-11-22T03:44:08.323Z,100884.94
2018-11-22T03:46:37.620Z,100889.31
2018-11-22T03:49:06.377Z,100879.05
2018-11-22T03:51:45.800Z,100879.39
2018-11-22T03:54:06.455Z,100878.91
2018-11-22T03:56:35.063Z,100888.50
2018-11-22T03:59:07.055Z,100880.46
2018-11-22T04:01:35.686Z,100885.17
2018-11-22T04:04:13.106Z,100885.57
2018-11-22T04:06:42.160Z,100879.97
2018-11-22T04:09:12.125Z,100880.20
2018-11-22T04:11:40.766Z,100883.35
2018-11-22T04:14:10.133Z,100884.70
2018-11-22T04:16:38.726Z,100893.75
2018-11-22T12:17:55.671Z,100949.98
2018-11-22T12:20:24.614Z,100942.39
2018-11-22T12:22:57.727Z,100934.77
2018-11-22T12:25:27.862Z,100935.88
2018-11-22T12:28:01.494Z,100929.85
2018-11-22T12:30:32.733Z,100924.76
2018-11-22T12:35:07.996Z,100927.05
2018-11-22T12:37:43.357Z,100922.13
2018-11-22T12:40:11.935Z,100920.44
2018-11-22T12:42:41.282Z,100924.50
2018-11-22T12:48:04.984Z,100917.50
2018-11-22T12:50:33.943Z,100921.55
2018-11-22T12:53:02.933Z,100921.90
2018-11-22T12:55:32.172Z,100919.25
2018-11-22T12:58:01.124Z,100918.80
2018-11-22T13:00:30.046Z,100924.76
2018-11-22T13:02:59.450Z,100920.98
2018-11-22T13:05:31.881Z,100918.45
2018-11-22T13:08:00.978Z,100912.91
2018-11-22T13:10:30.284Z,100914.56
2018-11-22T13:12:59.250Z,100915.92
2018-11-22T13:15:29.751Z,100915.37
2018-11-22T13:18:09.102Z,100915.40
2018-11-22T13:20:37.993Z,100922.56
2018-11-22T13:23:07.112Z,100919.95
2018-11-22T13:25:36.341Z,100913.70
2018-11-22T13:28:06.400Z,100912.45
2018-11-22T13:30:35.317Z,100911.34
2018-11-22T13:33:08.496Z,100907.05
2018-11-22T13:35:37.363Z,100908.10
2018-11-22T13:38:06.801Z,100906.41
2018-11-22T13:40:35.682Z,100906.34
2018-11-22T13:43:09.272Z,100908.58
2018-11-22T13:45:38.528Z,100899.51
2018-11-22T13:48:07.360Z,100906.28
2018-11-22T13:50:41.964Z,100911.91
2018-11-22T13:53:06.955Z,100907.47
2018-11-22T13:55:36.096Z,100905.97
2018-11-22T13:58:05.997Z,100911.19
2018-11-22T14:00:40.341Z,100905.45
2018-11-22T14:03:09.272Z,100909.44
2018-11-22T14:05:38.948Z,100914.04
2018-11-22T14:08:07.809Z,100908.71
2018-11-22T14:10:36.675Z,100910.47
2018-11-22T14:13:05.713Z,100906.41
2018-11-22T14:15:35.445Z,100905.30
2018-11-22T14:18:06.533Z,100903.92
2018-11-22T14:20:36.265Z,100905.14
2018-11-22T14:23:05.373Z,100904.21
2018-11-22T14:25:33.969Z,100906.54
2018-11-22T14:28:09.396Z,100912.73
2018-11-22T14:30:38.496Z,100908.73
2018-11-22T14:33:07.554Z,100908.37
2018-11-22T14:35:41.034Z,100907.70
2018-11-22T14:38:09.958Z,100910.98
2018-11-22T14:40:38.889Z,100912.28
2018-11-22T14:43:08.073Z,100905.98
2018-11-22T14:45:36.997Z,100909.73
2018-11-22T14:48:11.953Z,100907.42
2018-11-22T14:50:50.737Z,100916.98
2018-11-22T14:53:21.177Z,100913.72
2018-11-22T14:55:53.015Z,100916.06
2018-11-22T14:58:21.839Z,100922.20
2018-11-22T15:00:50.656Z,100916.46
2018-11-22T15:03:19.807Z,100916.10
2018-11-22T15:05:48.704Z,100917.11
2018-11-22T15:08:17.708Z,100916.27
2018-11-22T15:10:46.948Z,100910.47
2018-11-22T15:13:15.934Z,100911.03
2018-11-22T15:15:44.923Z,100913.83
2018-11-22T15:18:13.879Z,100906.91
2018-11-22T15:22:14.678Z,100914.52
2018-11-22T15:24:43.766Z,100910.84
2018-11-22T15:27:12.643Z,100914.52
2018-11-22T15:29:41.534Z,100915.14
2018-11-22T15:34:45.390Z,100929.71
2018-11-22T15:37:14.479Z,100925.59
2018-11-22T15:39:43.676Z,100926.53
2018-11-22T15:42:12.552Z,100918.90
2018-11-22T15:44:41.430Z,100927.64
2018-11-22T15:47:10.553Z,100925.22
2018-11-22T15:49:44.219Z,100930.98
2018-11-22T15:52:13.079Z,100937.20
2018-11-22T15:54:42.408Z,100938.44
2018-11-22T15:57:11.207Z,100934.13
2018-11-22T15:59:40.813Z,100936.80
2018-11-22T16:02:09.993Z,100933.00
2018-11-22T16:04:39.172Z,100930.94
2018-11-22T16:07:08.044Z,100939.76
2018-11-22T16:09:36.897Z,100936.77
2018-11-22T16:12:06.772Z,100941.66
2018-11-22T16:14:37.130Z,100942.09
2018-11-22T16:17:06.376Z,100936.57
2018-11-22T16:19:35.250Z,100938.85
2018-11-22T16:22:11.036Z,100939.34
2018-11-22T16:24:41.097Z,100935.41
2018-11-22T16:27:10.036Z,100940.70
2018-11-22T16:29:38.954Z,100946.02
2018-11-22T16:32:11.898Z,100943.41
2018-11-22T16:34:41.555Z,100943.52
2018-11-22T16:37:16.121Z,100950.42
2018-11-22T16:39:45.242Z,100949.23
2018-11-22T16:42:14.179Z,100948.34
2018-11-22T16:44:43.736Z,100946.63
2018-11-22T16:47:13.029Z,100945.13
2018-11-22T16:49:41.940Z,100943.69
2018-11-22T16:52:11.134Z,100948.55
2018-11-22T16:54:40.354Z,100943.78
2018-11-22T16:57:12.131Z,100942.86
2018-11-22T16:59:43.096Z,100939.07
2018-11-22T17:02:14.765Z,100947.36
2018-11-22T17:04:44.776Z,100949.05
2018-11-22T17:07:19.743Z,100949.55
2018-11-22T17:09:48.857Z,100947.80
2018-11-22T17:12:19.606Z,100949.55
2018-11-22T17:14:49.279Z,100954.42
2018-11-22T17:17:20.344Z,100953.17
2018-11-22T17:19:49.473Z,100956.75
2018-11-22T17:22:18.683Z,100958.53
2018-11-22T17:24:47.871Z,100959.41
2018-11-22T17:27:16.744Z,100954.19
2018-11-22T17:29:47.047Z,100963.32
2018-11-22T17:32:19.776Z,100964.24
2018-11-22T17:34:56.478Z,100958.20
2018-11-22T17:37:25.730Z,100966.02
2018-11-22T17:39:58.490Z,100957.48
2018-11-22T17:42:27.413Z,100961.44
2018-11-22T17:45:02.559Z,100959.32
2018-11-22T17:47:32.875Z,100965.99
2018-11-22T17:50:06.133Z,100965.13
2018-11-22T17:52:37.292Z,100962.13
2018-11-22T17:55:12.700Z,100958.66
2018-11-22T17:57:43.464Z,100954.85
2018-11-22T18:00:19.831Z,100957.12
2018-11-22T18:02:50.077Z,100961.12
2018-11-22T18:05:19.848Z,100965.02
2018-11-22T18:07:48.711Z,100966.38
2018-11-22T18:10:19.075Z,100964.22
2018-11-22T18:12:48.901Z,100962.47
2018-11-22T18:15:18.969Z,100962.52
2018-11-22T18:17:48.018Z,100956.88
2018-11-22T18:20:19.469Z,100964.36
2018-11-22T18:22:49.077Z,100964.34
2018-11-22T18:25:19.559Z,100975.64
2018-11-22T18:30:33.858Z,100982.14
2018-11-22T18:33:05.038Z,100976.94
2018-11-22T18:35:33.960Z,100983.97
2018-11-22T18:38:05.436Z,100991.31
2018-11-22T18:40:36.912Z,100978.91
2018-11-22T18:43:06.323Z,100981.56
2018-11-22T18:45:36.833Z,100979.53
2018-11-22T18:48:08.130Z,100977.34
2018-11-22T18:50:41.098Z,100976.53
2018-11-22T18:53:11.290Z,100984.30
2018-11-22T18:55:39.246Z,100983.52
2018-11-22T19:00:43.795Z,100989.30
2018-11-22T19:03:14.232Z,100987.17
2018-11-22T19:05:43.141Z,100994.16
2018-11-22T19:08:12.033Z,100992.38
2018-11-22T19:10:42.125Z,100990.68
2018-11-22T19:13:11.959Z,100995.41
2018-11-22T19:15:43.319Z,100995.41
2018-11-22T19:18:13.433Z,101000.19
2018-11-22T19:20:45.173Z,100992.50
2018-11-22T19:23:14.528Z,100991.72
2018-11-22T19:25:43.460Z,100993.52
2018-11-22T19:28:12.472Z,100989.98
2018-11-22T19:30:43.313Z,100990.04
2018-11-22T19:33:13.813Z,100997.06
2018-11-22T19:35:44.215Z,101001.36
2018-11-22T19:38:13.577Z,101004.09
2018-11-22T19:40:43.079Z,101002.34
2018-11-22T19:43:12.387Z,101005.86
2018-11-22T19:45:43.289Z,101009.41
2018-11-22T19:48:12.321Z,101010.28
2018-11-22T19:50:41.504Z,101007.76
2018-11-22T19:53:12.328Z,101006.02
2018-11-22T19:55:41.574Z,100996.09
2018-11-22T19:58:11.970Z,100996.61
2018-11-22T20:03:20.956Z,100993.27
2018-11-22T20:05:49.941Z,101003.34
2018-11-22T20:08:19.738Z,101001.61
2018-11-22T20:10:56.012Z,101006.42
2018-11-22T20:13:31.675Z,100996.97
2018-11-22T20:16:00.920Z,101008.27
2018-11-22T20:18:33.974Z,101000.86
2018-11-22T20:21:03.102Z,101005.23
2018-11-22T20:23:33.953Z,101000.55
2018-11-22T20:26:04.110Z,101002.83
2018-11-22T20:28:32.980Z,100999.40
2018-11-22T20:31:02.994Z,100997.70
2018-11-22T20:33:32.196Z,100996.91
2018-11-22T20:36:01.201Z,100996.08
2018-11-22T20:38:30.039Z,100994.78
2018-11-22T20:40:59.278Z,100993.95
2018-11-22T20:43:38.944Z,100991.86
2018-11-22T20:46:08.250Z,100994.02
2018-11-22T20:48:37.105Z,100996.22
2018-11-22T20:51:07.173Z,100997.05
2018-11-22T20:53:36.433Z,100998.82
2018-11-22T20:56:06.714Z,100993.77
2018-11-22T20:58:35.551Z,101004.59
2018-11-22T21:03:44.499Z,101010.36
2018-11-22T21:06:13.436Z,101016.09
2018-11-22T21:08:48.424Z,101015.33
2018-11-22T21:11:11.338Z,101014.89
2018-11-22T21:13:40.613Z,101010.53
2018-11-22T21:16:09.471Z,101010.09
2018-11-22T21:18:38.442Z,101010.06
2018-11-22T21:21:07.715Z,101004.84
2018-11-22T21:23:36.553Z,101003.50
2018-11-22T21:28:40.374Z,101009.63
2018-11-22T21:31:12.488Z,101009.66
2018-11-22T21:33:41.428Z,101013.16
2018-11-22T21:36:10.579Z,101017.09
2018-11-22T21:38:39.423Z,101017.56
2018-11-22T21:41:08.248Z,101014.99
2018-11-22T21:43:37.397Z,101014.16
2018-11-22T21:46:36.686Z,101012.92
2018-11-22T21:49:05.840Z,101016.45
2018-11-22T21:51:39.389Z,101021.21
2018-11-22T21:54:14.632Z,101023.84
2018-11-22T21:56:43.790Z,101021.28
2018-11-22T21:59:12.579Z,101022.55
2018-11-22T22:01:41.412Z,101031.62
2018-11-22T22:04:10.565Z,101032.50
2018-11-22T22:06:45.510Z,101028.16
2018-11-22T22:09:14.361Z,101025.66
2018-11-22T22:11:43.592Z,101025.26
2018-11-22T22:14:12.506Z,101024.39
2018-11-22T22:16:41.535Z,101020.91
2018-11-22T22:19:15.988Z,101019.57
2018-11-22T22:21:45.571Z,101020.50
2018-11-22T22:24:14.460Z,101011.97
2018-11-22T22:26:43.557Z,101011.94
2018-11-22T22:29:12.617Z,101025.32
2018-11-22T22:31:52.434Z,101014.56
2018-11-22T22:34:21.860Z,101022.78
2018-11-22T22:36:50.691Z,101023.25
2018-11-22T22:39:19.570Z,101010.30
2018-11-22T22:41:48.721Z,101009.83
2018-11-22T22:44:22.403Z,101011.56
2018-11-22T22:46:52.626Z,101016.78
2018-11-22T22:49:25.145Z,101018.55
2018-11-22T22:51:53.996Z,101022.88
2018-11-22T22:54:23.189Z,101022.04
2018-11-22T22:56:52.303Z,101016.84
2018-11-22T22:59:21.246Z,101021.52
2018-11-22T23:01:50.375Z,101012.09
2018-11-22T23:04:24.826Z,101009.52
2018-11-22T23:06:53.833Z,101017.28
2018-11-22T23:09:22.958Z,101015.14
2018-11-22T23:11:51.803Z,101016.84
2018-11-22T23:14:20.651Z,101016.02
2018-11-22T23:16:49.794Z,101021.66
2018-11-22T23:19:18.782Z,101019.13
2018-11-22T23:21:48.382Z,101024.26
2018-11-22T23:24:17.671Z,101021.72
2018-11-22T23:26:58.522Z,101022.55
2018-11-22T23:29:27.593Z,101019.18
2018-11-22T23:31:56.802Z,101016.13
2018-11-22T23:34:25.722Z,101001.97
2018-11-22T23:36:54.849Z,101015.72
2018-11-22T23:39:23.936Z,101015.31
2018-11-22T23:41:53.342Z,101017.97
2018-11-22T23:44:22.258Z,101010.21
2018-11-22T23:46:53.724Z,101005.05
2018-11-22T23:49:22.545Z,101008.53
2018-11-22T23:51:57.060Z,101010.66
2018-11-22T23:54:26.181Z,101017.20
2018-11-22T23:56:59.692Z,101004.23
2018-11-22T23:59:28.529Z,101008.99
